createdAt,value
2018-10-02T00:01:19.537Z,8.84
2018-10-02T00:03:47.887Z,8.86
2018-10-02T00:06:16.108Z,8.89
2018-10-02T00:08:44.350Z,8.92
2018-10-02T00:11:18.173Z,8.93
2018-10-02T00:13:51.693Z,8.96
2018-10-02T00:16:19.900Z,8.99
2018-10-02T00:18:48.165Z,9.04
2018-10-02T00:21:16.498Z,9.06
2018-10-02T00:23:44.883Z,8.97
2018-10-02T00:26:13.116Z,9.00
2018-10-02T00:28:42.097Z,8.89
2018-10-02T00:31:10.956Z,8.96
2018-10-02T00:33:39.259Z,8.94
2018-10-02T00:36:07.711Z,8.94
2018-10-02T00:38:35.963Z,8.94
2018-10-02T00:41:04.248Z,8.84
2018-10-02T00:43:32.487Z,8.80
2018-10-02T00:46:00.763Z,8.76
2018-10-02T00:48:29.097Z,8.72
2018-10-02T00:50:57.306Z,8.80
2018-10-02T00:53:25.591Z,8.79
2018-10-02T00:55:53.966Z,8.75
2018-10-02T00:58:22.190Z,8.75
2018-10-02T01:00:50.551Z,8.75
2018-10-02T01:03:18.906Z,8.77
2018-10-02T01:05:47.873Z,8.71
2018-10-02T01:08:16.248Z,8.73
2018-10-02T01:10:45.602Z,8.71
2018-10-02T01:13:13.843Z,8.69
2018-10-02T01:15:42.783Z,8.63
2018-10-02T01:18:11.144Z,8.50
2018-10-02T01:20:39.334Z,8.46
2018-10-02T01:23:07.615Z,8.45
2018-10-02T01:25:35.904Z,8.39
2018-10-02T01:28:04.152Z,8.35
2018-10-02T01:30:32.424Z,8.25
2018-10-02T01:33:00.810Z,8.31
2018-10-02T01:35:29.097Z,8.36
2018-10-02T01:37:57.470Z,8.39
2018-10-02T01:40:25.756Z,8.41
2018-10-02T01:42:53.995Z,8.42
2018-10-02T01:45:22.278Z,8.45
2018-10-02T01:47:50.484Z,8.48
2018-10-02T01:50:18.798Z,8.43
2018-10-02T01:52:47.281Z,8.35
2018-10-02T01:55:15.714Z,8.36
2018-10-02T01:57:44.225Z,8.23
2018-10-02T02:00:12.536Z,8.19
2018-10-02T02:02:40.813Z,8.16
2018-10-02T02:05:09.253Z,8.03
2018-10-02T02:07:37.730Z,8.04
2018-10-02T02:10:06.544Z,7.95
2018-10-02T02:12:35.183Z,7.93
2018-10-02T02:15:04.020Z,7.83
2018-10-02T02:17:32.366Z,7.81
2018-10-02T02:20:00.709Z,7.78
2018-10-02T02:22:29.104Z,7.80
2018-10-02T02:24:57.384Z,7.76
2018-10-02T02:27:25.675Z,7.76
2018-10-02T02:29:53.986Z,7.72
2018-10-02T02:32:22.310Z,7.67
2018-10-02T02:34:50.602Z,7.68
2018-10-02T02:37:18.868Z,7.54
2018-10-02T02:39:47.217Z,7.46
2018-10-02T02:42:15.511Z,7.36
2018-10-02T02:44:43.807Z,7.32
2018-10-02T02:47:17.522Z,7.28
2018-10-02T02:49:51.249Z,7.29
2018-10-02T02:52:21.648Z,7.33
2018-10-02T02:54:49.895Z,7.30
2018-10-02T02:57:18.159Z,7.26
2018-10-02T02:59:46.466Z,7.22
2018-10-02T03:02:14.799Z,7.21
2018-10-02T03:04:43.107Z,7.21
2018-10-02T03:07:11.733Z,7.15
2018-10-02T03:09:40.091Z,7.14
2018-10-02T03:12:08.633Z,7.12
2018-10-02T03:14:36.933Z,7.13
2018-10-02T03:17:05.438Z,7.08
2018-10-02T03:19:33.733Z,7.01
2018-10-02T03:22:01.991Z,6.96
2018-10-02T03:24:30.242Z,6.88
2018-10-02T03:26:58.543Z,6.84
2018-10-02T03:29:26.826Z,6.80
2018-10-02T03:31:55.262Z,6.74
2018-10-02T03:34:23.664Z,6.66
2018-10-02T03:36:51.978Z,6.68
2018-10-02T03:39:20.541Z,6.60
2018-10-02T03:41:48.838Z,6.61
2018-10-02T03:44:17.509Z,6.54
2018-10-02T03:46:45.765Z,6.59
2018-10-02T03:49:14.965Z,6.59
2018-10-02T03:51:43.215Z,6.45
2018-10-02T03:54:11.538Z,6.43
2018-10-02T03:56:40.009Z,6.35
2018-10-02T03:59:08.605Z,6.38
2018-10-02T04:01:36.949Z,6.36
2018-10-02T04:04:05.451Z,6.29
2018-10-02T04:06:33.873Z,6.28
2018-10-02T04:09:02.161Z,6.20
2018-10-02T04:11:31.165Z,6.17
2018-10-02T04:13:59.502Z,6.03
2018-10-02T04:16:27.887Z,5.96
2018-10-02T04:18:56.381Z,5.99
2018-10-02T04:21:29.277Z,5.94
2018-10-02T04:23:57.751Z,5.89
2018-10-02T04:26:26.267Z,5.91
2018-10-02T04:28:56.081Z,5.91
2018-10-02T04:31:24.393Z,5.93
2018-10-02T04:33:52.924Z,5.96
2018-10-02T04:36:21.161Z,5.95
2018-10-02T04:38:49.391Z,6.03
2018-10-02T04:41:17.818Z,6.08
2018-10-02T04:43:46.264Z,6.21
2018-10-02T04:46:14.570Z,6.26
2018-10-02T04:48:42.889Z,6.28
2018-10-02T04:51:13.203Z,6.29
2018-10-02T04:53:41.551Z,6.55
2018-10-02T04:56:11.749Z,6.55
2018-10-02T04:58:40.035Z,6.58
2018-10-02T05:01:08.287Z,6.59
2018-10-02T05:03:36.538Z,6.49
2018-10-02T05:06:04.970Z,6.53
2018-10-02T05:08:33.494Z,6.46
2018-10-02T05:11:01.780Z,6.31
2018-10-02T05:13:30.267Z,7.11
2018-10-02T05:15:58.880Z,6.62
2018-10-02T05:18:27.162Z,6.48
2018-10-02T05:20:55.551Z,6.27
2018-10-02T05:23:23.918Z,6.15
2018-10-02T05:25:52.218Z,6.05
2018-10-02T05:28:20.503Z,5.92
2018-10-02T05:30:48.924Z,5.90
2018-10-02T05:33:17.200Z,5.98
2018-10-02T05:35:45.511Z,5.88
2018-10-02T05:38:13.860Z,7.77
2018-10-02T05:40:42.187Z,12.30
2018-10-02T05:43:10.705Z,14.77
2018-10-02T05:45:39.031Z,16.04
2018-10-02T05:48:07.402Z,16.92
2018-10-02T05:50:35.800Z,17.38
2018-10-02T05:53:04.011Z,17.63
2018-10-02T05:55:32.498Z,17.81
2018-10-02T05:58:00.822Z,18.07
2018-10-02T06:00:29.378Z,17.15
2018-10-02T06:02:57.977Z,13.04
2018-10-02T06:05:26.259Z,11.36
2018-10-02T06:07:54.833Z,10.55
2018-10-02T06:10:23.149Z,9.84
2018-10-02T06:12:51.472Z,9.16
2018-10-02T06:15:19.942Z,10.05
2018-10-02T06:17:48.226Z,9.41
2018-10-02T06:20:17.047Z,9.27
2018-10-02T06:22:45.468Z,9.24
2018-10-02T06:25:13.766Z,9.01
2018-10-02T06:27:42.254Z,8.98
2018-10-02T06:30:10.694Z,8.89
2018-10-02T06:32:39.213Z,8.77
2018-10-02T06:35:07.660Z,8.78
2018-10-02T06:37:36.242Z,8.69
2018-10-02T06:40:04.803Z,8.65
2018-10-02T06:42:33.271Z,8.51
2018-10-02T06:45:01.677Z,8.41
2018-10-02T06:47:30.639Z,8.23
2018-10-02T06:49:58.907Z,8.10
2018-10-02T06:52:27.571Z,8.28
2018-10-02T06:54:55.749Z,8.28
2018-10-02T06:57:24.141Z,8.60
2018-10-02T06:59:52.411Z,8.94
2018-10-02T07:02:20.640Z,9.40
2018-10-02T07:04:49.297Z,9.23
2018-10-02T07:07:18.813Z,9.80
2018-10-02T07:09:47.159Z,10.13
2018-10-02T07:12:15.480Z,10.38
2018-10-02T07:14:44.068Z,10.37
2018-10-02T07:17:12.583Z,10.47
2018-10-02T07:19:40.958Z,10.25
2018-10-02T07:22:09.404Z,9.88
2018-10-02T07:24:37.689Z,9.51
2018-10-02T07:27:06.519Z,9.77
2018-10-02T07:29:34.684Z,9.69
2018-10-02T07:32:02.979Z,9.82
2018-10-02T07:34:31.344Z,9.92
2018-10-02T07:36:59.815Z,9.95
2018-10-02T07:39:28.117Z,10.02
2018-10-02T07:41:56.516Z,10.32
2018-10-02T07:44:24.837Z,10.47
2018-10-02T07:46:53.420Z,10.52
2018-10-02T07:49:21.755Z,10.42
2018-10-02T07:51:50.152Z,10.29
2018-10-02T07:54:18.605Z,10.61
2018-10-02T07:56:47.728Z,10.74
2018-10-02T07:59:16.244Z,10.45
2018-10-02T08:01:44.528Z,10.66
2018-10-02T08:04:12.857Z,10.60
2018-10-02T08:06:41.204Z,10.74
2018-10-02T08:09:11.670Z,11.06
2018-10-02T08:11:40.074Z,11.26
2018-10-02T08:14:09.083Z,11.74
2018-10-02T08:16:37.827Z,11.37
2018-10-02T08:19:06.124Z,12.12
2018-10-02T08:21:34.422Z,13.11
2018-10-02T08:24:02.838Z,12.81
2018-10-02T08:26:31.154Z,12.77
2018-10-02T08:28:59.499Z,12.74
2018-10-02T08:31:28.402Z,12.24
2018-10-02T08:33:56.689Z,12.26
2018-10-02T08:36:25.047Z,12.18
2018-10-02T08:38:53.300Z,12.31
2018-10-02T08:41:21.766Z,12.35
2018-10-02T08:43:52.123Z,12.73
2018-10-02T08:46:20.358Z,12.82
2018-10-02T08:48:49.700Z,13.50
2018-10-02T08:51:18.203Z,13.89
2018-10-02T08:53:46.569Z,13.91
2018-10-02T08:56:14.847Z,12.93
2018-10-02T08:58:43.188Z,12.49
2018-10-02T09:01:11.564Z,13.05
2018-10-02T09:03:39.833Z,12.86
2018-10-02T09:06:08.170Z,13.26
2018-10-02T09:08:36.843Z,13.30
2018-10-02T09:11:05.446Z,13.78
2018-10-02T09:13:33.807Z,13.99
2018-10-02T09:16:02.365Z,13.42
2018-10-02T09:18:30.748Z,13.44
2018-10-02T09:20:59.092Z,13.69
2018-10-02T09:23:27.404Z,14.38
2018-10-02T09:25:55.788Z,13.65
2018-10-02T09:28:24.090Z,13.71
2018-10-02T09:30:57.790Z,13.60
2018-10-02T09:33:31.209Z,13.88
2018-10-02T09:36:04.909Z,14.69
2018-10-02T09:38:38.499Z,15.61
2018-10-02T09:41:12.252Z,14.66
2018-10-02T09:43:44.635Z,15.25
2018-10-02T09:46:12.887Z,14.56
2018-10-02T09:48:41.293Z,14.49
2018-10-02T09:51:09.590Z,13.99
2018-10-02T09:53:37.881Z,14.67
2018-10-02T09:56:06.548Z,13.95
2018-10-02T09:58:35.007Z,13.51
2018-10-02T10:01:05.669Z,13.12
2018-10-02T10:03:34.264Z,13.20
2018-10-02T10:06:02.662Z,13.09
2018-10-02T10:08:31.144Z,13.17
2018-10-02T10:10:59.594Z,13.10
2018-10-02T10:13:28.031Z,13.18
2018-10-02T10:16:00.372Z,12.98
2018-10-02T10:18:28.856Z,13.45
2018-10-02T10:20:57.092Z,13.38
2018-10-02T10:23:26.124Z,13.51
2018-10-02T10:25:54.377Z,13.79
2018-10-02T10:28:22.839Z,13.49
2018-10-02T10:30:51.103Z,13.46
2018-10-02T10:33:20.151Z,13.40
2018-10-02T10:35:48.578Z,13.32
2018-10-02T10:38:17.014Z,13.38
2018-10-02T10:40:45.390Z,13.54
2018-10-02T10:43:14.154Z,13.63
2018-10-02T10:45:42.840Z,13.24
2018-10-02T10:48:11.820Z,13.36
2018-10-02T10:50:40.136Z,13.50
2018-10-02T10:53:08.607Z,13.70
2018-10-02T10:55:38.292Z,13.40
2018-10-02T10:58:06.582Z,13.72
2018-10-02T11:00:37.447Z,13.83
2018-10-02T11:03:06.945Z,13.44
2018-10-02T11:05:35.527Z,13.35
2018-10-02T11:08:04.141Z,13.37
2018-10-02T11:10:32.679Z,13.12
2018-10-02T11:13:02.683Z,13.00
2018-10-02T11:15:32.453Z,12.43
2018-10-02T11:18:01.530Z,12.58
2018-10-02T11:20:32.166Z,12.80
2018-10-02T11:23:03.351Z,13.72
2018-10-02T11:25:31.893Z,13.64
2018-10-02T11:28:00.272Z,13.34
2018-10-02T11:30:28.671Z,13.43
2018-10-02T11:32:57.093Z,13.18
2018-10-02T11:35:25.516Z,13.36
2018-10-02T11:37:53.976Z,13.43
2018-10-02T11:40:22.411Z,13.66
2018-10-02T11:42:50.743Z,13.59
2018-10-02T11:45:19.048Z,13.51
2018-10-02T11:47:47.457Z,13.54
2018-10-02T11:50:15.791Z,13.18
2018-10-02T11:52:44.041Z,13.33
2018-10-02T11:55:12.703Z,13.48
2018-10-02T11:57:41.008Z,13.42
2018-10-02T12:00:10.356Z,13.44
2018-10-02T12:02:38.802Z,13.86
2018-10-02T12:05:07.265Z,13.71
2018-10-02T12:07:35.974Z,13.70
2018-10-02T12:10:04.633Z,13.82
2018-10-02T12:12:33.032Z,13.54
2018-10-02T12:15:01.576Z,13.69
2018-10-02T12:17:29.935Z,13.47
2018-10-02T12:19:58.494Z,13.51
2018-10-02T12:22:26.744Z,13.43
2018-10-02T12:24:55.016Z,13.27
2018-10-02T12:27:23.544Z,13.45
2018-10-02T12:29:51.840Z,13.62
2018-10-02T12:32:20.139Z,13.54
2018-10-02T12:34:48.502Z,13.71
2018-10-02T12:37:16.796Z,14.04
2018-10-02T12:39:45.132Z,13.79
2018-10-02T12:42:13.491Z,13.42
2018-10-02T12:44:41.953Z,13.26
2018-10-02T12:47:10.232Z,13.15
2018-10-02T12:49:38.566Z,13.11
2018-10-02T12:52:06.991Z,13.19
2018-10-02T12:54:35.316Z,13.22
2018-10-02T12:58:32.915Z,13.22
2018-10-02T13:01:01.295Z,13.21
2018-10-02T13:03:29.912Z,13.29
2018-10-02T13:05:58.225Z,13.43
2018-10-02T13:08:27.092Z,13.29
2018-10-02T13:10:55.375Z,13.37
2018-10-02T13:13:23.809Z,13.50
2018-10-02T13:15:52.115Z,13.35
2018-10-02T13:18:20.407Z,13.35
2018-10-02T13:20:48.722Z,13.04
2018-10-02T13:23:17.899Z,13.13
2018-10-02T13:25:46.286Z,13.14
2018-10-02T13:28:14.613Z,13.37
2018-10-02T13:30:43.100Z,13.10
2018-10-02T13:33:11.492Z,13.19
2018-10-02T13:35:39.798Z,13.23
2018-10-02T13:38:08.221Z,13.17
2018-10-02T13:40:36.533Z,13.26
2018-10-02T13:43:04.996Z,13.37
2018-10-02T13:45:33.381Z,13.36
2018-10-02T13:48:01.855Z,13.23
2018-10-02T13:50:30.322Z,13.21
2018-10-02T13:52:58.670Z,13.02
2018-10-02T13:55:27.226Z,13.36
2018-10-02T13:57:55.630Z,12.92
2018-10-02T14:00:24.033Z,12.98
2018-10-02T14:02:52.461Z,12.77
2018-10-02T14:05:20.736Z,12.90
2018-10-02T14:07:49.328Z,13.04
2018-10-02T14:10:19.397Z,13.01
2018-10-02T14:12:47.723Z,12.54
2018-10-02T14:15:16.316Z,12.55
2018-10-02T14:17:44.703Z,12.65
2018-10-02T14:20:13.178Z,12.65
2018-10-02T14:22:41.497Z,12.59
2018-10-02T14:25:09.998Z,12.48
2018-10-02T14:27:38.329Z,12.52
2018-10-02T14:30:06.912Z,12.48
2018-10-02T14:32:35.695Z,12.30
2018-10-02T14:35:04.140Z,12.13
2018-10-02T14:37:32.746Z,12.25
2018-10-02T14:40:01.131Z,12.19
2018-10-02T14:42:29.425Z,12.15
2018-10-02T14:44:57.837Z,12.20
2018-10-02T14:47:26.443Z,12.02
2018-10-02T14:49:54.855Z,12.05
2018-10-02T14:52:23.345Z,12.00
2018-10-02T14:54:51.807Z,11.89
2018-10-02T14:57:20.263Z,11.95
2018-10-02T14:59:48.613Z,11.79
2018-10-02T15:02:16.945Z,11.74
2018-10-02T15:04:45.475Z,11.66
2018-10-02T15:07:13.905Z,11.80
2018-10-02T15:09:42.318Z,11.90
2018-10-02T15:12:10.791Z,11.88
2018-10-02T15:14:39.105Z,11.95
2018-10-02T15:17:07.598Z,11.92
2018-10-02T15:19:35.998Z,11.94
2018-10-02T15:22:04.436Z,11.99
2018-10-02T15:24:32.745Z,11.98
2018-10-02T15:27:01.103Z,11.93
2018-10-02T15:29:29.718Z,11.97
2018-10-02T15:31:58.195Z,11.98
2018-10-02T15:34:26.638Z,11.98
2018-10-02T15:36:55.062Z,12.07
2018-10-02T15:39:23.458Z,12.03
2018-10-02T15:41:51.737Z,12.08
2018-10-02T15:44:20.031Z,12.11
2018-10-02T15:46:48.525Z,12.17
2018-10-02T15:49:19.726Z,12.14
2018-10-02T15:51:49.145Z,12.13
2018-10-02T15:54:18.798Z,12.11
2018-10-02T15:56:47.278Z,12.19
2018-10-02T15:59:15.861Z,12.29
2018-10-02T16:01:44.997Z,12.22
2018-10-02T16:04:13.496Z,12.32
2018-10-02T16:06:42.540Z,12.30
2018-10-02T16:09:11.024Z,12.34
2018-10-02T16:11:40.830Z,12.31
2018-10-02T16:14:09.232Z,12.33
2018-10-02T16:16:38.141Z,12.32
2018-10-02T16:19:07.208Z,12.29
2018-10-02T16:21:37.851Z,12.37
2018-10-02T16:24:06.233Z,12.35
2018-10-02T16:26:34.584Z,12.40
2018-10-02T16:29:02.891Z,12.44
2018-10-02T16:31:31.154Z,12.49
2018-10-02T16:33:59.414Z,12.45
2018-10-02T16:36:27.928Z,12.43
2018-10-02T16:38:56.552Z,12.48
2018-10-02T16:41:24.872Z,12.39
2018-10-02T16:43:53.348Z,12.48
2018-10-02T16:46:21.647Z,12.49
2018-10-02T16:48:50.536Z,12.45
2018-10-02T16:51:18.849Z,12.46
2018-10-02T16:53:47.672Z,12.54
2018-10-02T16:56:16.816Z,12.58
2018-10-02T16:58:45.283Z,12.56
2018-10-02T17:01:13.536Z,12.58
2018-10-02T17:03:41.803Z,12.62
2018-10-02T17:06:10.419Z,12.59
2018-10-02T17:08:38.977Z,12.59
2018-10-02T17:11:07.459Z,12.64
2018-10-02T17:13:35.819Z,12.65
2018-10-02T17:16:04.248Z,12.73
2018-10-02T17:18:32.772Z,12.71
2018-10-02T17:21:01.410Z,12.69
2018-10-02T17:23:29.821Z,12.74
2018-10-02T17:25:58.217Z,12.65
2018-10-02T17:28:26.716Z,12.71
2018-10-02T17:30:55.101Z,12.71
2018-10-02T17:33:23.712Z,12.65
2018-10-02T17:35:52.107Z,12.72
2018-10-02T17:38:21.099Z,12.66
2018-10-02T17:40:49.525Z,12.59
2018-10-02T17:43:18.099Z,12.71
2018-10-02T17:45:46.491Z,12.67
2018-10-02T17:48:14.812Z,12.70
2018-10-02T17:50:43.461Z,12.75
2018-10-02T17:53:11.899Z,12.70
2018-10-02T17:55:40.382Z,12.74
2018-10-02T17:58:09.114Z,12.64
2018-10-02T18:00:37.455Z,12.65
2018-10-02T18:03:05.900Z,12.70
2018-10-02T18:05:34.415Z,12.68
2018-10-02T18:08:02.870Z,12.59
2018-10-02T18:11:34.669Z,12.63
2018-10-02T18:14:03.240Z,12.55
2018-10-02T18:16:32.201Z,12.64
2018-10-02T18:19:00.677Z,12.67
2018-10-02T18:21:29.739Z,12.57
2018-10-02T18:23:58.798Z,12.51
2018-10-02T18:26:27.362Z,12.56
2018-10-02T18:28:56.052Z,12.56
2018-10-02T18:31:24.505Z,12.62
2018-10-02T18:33:52.914Z,12.61
2018-10-02T18:36:21.496Z,12.59
2018-10-02T18:38:49.934Z,12.49
2018-10-02T18:41:18.788Z,12.56
2018-10-02T18:43:47.388Z,12.61
2018-10-02T18:46:15.797Z,12.61
2018-10-02T18:48:44.584Z,12.55
2018-10-02T18:51:12.932Z,12.51
2018-10-02T18:53:41.295Z,12.61
2018-10-02T18:56:10.110Z,12.59
2018-10-02T18:58:38.416Z,12.58
2018-10-02T19:01:07.027Z,12.53
2018-10-02T19:03:35.447Z,12.56
2018-10-02T19:06:04.449Z,12.57
2018-10-02T19:08:38.219Z,12.54
2018-10-02T19:11:11.961Z,12.55
2018-10-02T19:13:40.930Z,12.56
2018-10-02T19:16:30.144Z,12.46
2018-10-02T19:18:58.762Z,12.58
2018-10-02T19:21:27.752Z,12.50
2018-10-02T19:23:56.440Z,12.49
2018-10-02T19:26:26.854Z,12.51
2018-10-02T19:28:57.670Z,12.60
2018-10-02T19:31:31.481Z,12.60
2018-10-02T19:34:00.425Z,12.49
2018-10-02T19:36:28.954Z,12.53
2018-10-02T19:39:08.040Z,12.54
2018-10-02T19:41:37.176Z,12.63
2018-10-02T19:44:05.759Z,12.70
2018-10-02T19:46:40.469Z,12.67
2018-10-02T19:49:08.944Z,12.61
2018-10-02T19:51:42.779Z,12.70
2018-10-02T19:54:11.288Z,12.78
2018-10-02T19:56:39.922Z,14.35
2018-10-02T19:59:10.457Z,13.78
2018-10-02T20:01:39.475Z,13.72
2018-10-02T20:04:07.901Z,13.61
2018-10-02T20:06:36.343Z,13.51
2018-10-02T20:09:06.647Z,13.43
2018-10-02T20:11:35.249Z,13.37
2018-10-02T20:14:03.812Z,13.19
2018-10-02T20:16:32.419Z,13.18
2018-10-02T20:19:00.922Z,13.08
2018-10-02T20:21:29.451Z,12.86
2018-10-02T20:23:57.757Z,12.93
2018-10-02T20:26:26.307Z,12.87
2018-10-02T20:28:54.931Z,12.87
2018-10-02T20:31:23.879Z,12.88
2018-10-02T20:33:52.429Z,12.88
2018-10-02T20:36:20.810Z,12.78
2018-10-02T20:38:49.300Z,12.76
2018-10-02T20:41:17.633Z,12.66
2018-10-02T20:43:46.142Z,12.70
2018-10-02T20:46:14.629Z,12.76
2018-10-02T20:48:43.024Z,12.70
2018-10-02T20:51:11.463Z,12.74
2018-10-02T20:53:40.030Z,12.64
2018-10-02T20:56:08.386Z,12.55
2018-10-02T20:58:37.140Z,12.56
2018-10-02T21:01:05.592Z,12.65
2018-10-02T21:03:33.918Z,12.62
2018-10-02T21:06:02.473Z,12.58
2018-10-02T21:08:31.036Z,12.56
2018-10-02T21:10:59.450Z,12.52
2018-10-02T21:13:27.876Z,12.50
2018-10-02T21:15:56.350Z,12.38
2018-10-02T21:18:25.886Z,12.46
2018-10-02T21:20:54.628Z,12.48
2018-10-02T21:23:22.954Z,12.35
2018-10-02T21:25:51.934Z,12.37
2018-10-02T21:28:20.212Z,12.33
2018-10-02T21:30:48.609Z,12.30
2018-10-02T21:33:17.050Z,12.16
2018-10-02T21:35:45.406Z,12.08
2018-10-02T21:38:14.395Z,12.11
2018-10-02T21:40:42.958Z,12.16
2018-10-02T21:43:11.250Z,12.12
2018-10-02T21:45:39.630Z,12.15
2018-10-02T21:48:08.143Z,12.12
2018-10-02T21:50:36.780Z,12.09
2018-10-02T21:53:05.127Z,12.08
2018-10-02T21:55:33.443Z,11.98
2018-10-02T21:58:01.695Z,12.08
2018-10-02T22:00:31.526Z,11.99
2018-10-02T22:02:59.960Z,11.99
2018-10-02T22:05:28.341Z,12.05
2018-10-02T22:07:56.697Z,12.01
2018-10-02T22:10:25.020Z,11.97
2018-10-02T22:12:53.493Z,11.98
2018-10-02T22:15:21.840Z,11.99
2018-10-02T22:17:50.087Z,12.07
2018-10-02T22:20:18.362Z,12.02
2018-10-02T22:22:46.700Z,11.97
2018-10-02T22:25:15.215Z,11.96
2018-10-02T22:27:43.679Z,11.90
2018-10-02T22:30:13.974Z,11.98
2018-10-02T22:32:42.661Z,11.90
2018-10-02T22:35:11.001Z,11.77
2018-10-02T22:37:39.412Z,11.74
2018-10-02T22:40:08.354Z,11.64
2018-10-02T22:42:36.643Z,11.59
2018-10-02T22:45:05.101Z,11.50
2018-10-02T22:47:33.485Z,11.44
2018-10-02T22:50:02.707Z,11.32
2018-10-02T22:52:31.182Z,11.25
2018-10-02T22:55:00.602Z,11.26
2018-10-02T22:57:29.050Z,11.23
2018-10-02T22:59:57.459Z,11.33
2018-10-02T23:02:25.783Z,11.37
2018-10-02T23:04:54.288Z,11.45
2018-10-02T23:07:24.059Z,11.54
2018-10-02T23:09:52.766Z,11.47
2018-10-02T23:12:21.297Z,11.44
2018-10-02T23:14:49.746Z,11.49
2018-10-02T23:17:18.190Z,11.57
2018-10-02T23:19:46.508Z,11.60
2018-10-02T23:22:15.161Z,11.63
2018-10-02T23:24:43.971Z,11.67
2018-10-02T23:27:12.273Z,11.70
2018-10-02T23:29:40.620Z,11.66
2018-10-02T23:32:08.999Z,11.61
2018-10-02T23:34:37.834Z,11.53
2018-10-02T23:37:07.745Z,11.53
2018-10-02T23:39:36.003Z,11.45
2018-10-02T23:42:05.325Z,11.39
2018-10-02T23:44:37.928Z,11.37
2018-10-02T23:47:06.754Z,11.35
2018-10-02T23:49:35.252Z,11.35
2018-10-02T23:52:03.607Z,11.22
2018-10-02T23:54:32.518Z,11.20
2018-10-02T23:57:00.975Z,11.23
2018-10-02T23:59:31.336Z,11.18
